Time;durP1;ratioP1;P1;durP2;ratioP2;P2;SDS_P1;SDS_P2;PMS_P1;PMS_P2;Temp;Humidity;BMP_temperature;BMP_pressure;BME280_temperature;BME280_humidity;BME280_pressure;Samples;Min_cycle;Max_cycle;Signal;HPM_P1;HPM_P2
2022/08/19 00:00:27;;;;;;;7.35;6.57;;;24.30;82.10;;;;;;5066907;28;20039;-70
2022/08/19 00:02:53;;;;;;;8.52;5.95;;;24.40;82.10;;;;;;5061166;28;20024;-70
2022/08/19 00:05:21;;;;;;;7.50;6.32;;;24.30;82.20;;;;;;5075596;28;20032;-70
2022/08/19 00:07:48;;;;;;;6.85;6.15;;;24.30;82.30;;;;;;5073822;28;20020;-70
2022/08/19 00:10:15;;;;;;;7.50;6.22;;;24.30;82.40;;;;;;5079008;28;20036;-70
2022/08/19 00:12:41;;;;;;;7.13;6.00;;;24.30;82.50;;;;;;5071738;28;20032;-70
2022/08/19 00:15:11;;;;;;;7.07;5.93;;;24.30;82.50;;;;;;5063089;28;20032;-70
2022/08/19 00:17:44;;;;;;;9.60;6.57;;;24.20;82.60;;;;;;5063885;28;20032;-69
2022/08/19 00:20:13;;;;;;;7.35;6.13;;;24.20;82.80;;;;;;5062486;28;20058;-69
2022/08/19 00:22:41;;;;;;;6.63;6.03;;;24.20;83.00;;;;;;5064537;28;20047;-70
2022/08/19 00:25:07;;;;;;;9.40;6.30;;;24.20;83.20;;;;;;5072851;28;20050;-70
2022/08/19 00:27:34;;;;;;;9.18;6.88;;;24.20;83.20;;;;;;5079526;28;20028;-69
2022/08/19 00:30:02;;;;;;;7.68;6.97;;;24.20;83.40;;;;;;5071247;28;20159;-70
2022/08/19 00:32:28;;;;;;;6.78;6.10;;;24.20;83.60;;;;;;5072678;28;20078;-70
2022/08/19 00:34:53;;;;;;;8.00;7.07;;;24.10;83.80;;;;;;5066186;28;20694;-70
2022/08/19 00:37:22;;;;;;;7.80;6.93;;;24.10;84.70;;;;;;5079434;28;20498;-70
2022/08/19 00:39:50;;;;;;;9.25;6.88;;;24.20;85.60;;;;;;5079398;28;20069;-70
2022/08/19 00:42:17;;;;;;;8.70;7.88;;;24.00;86.40;;;;;;5076363;28;20089;-69
2022/08/19 00:44:43;;;;;;;8.57;7.68;;;24.00;87.70;;;;;;5075899;28;20403;-70
2022/08/19 00:47:11;;;;;;;9.90;7.47;;;23.90;88.70;;;;;;5067131;28;20036;-70
2022/08/19 00:49:53;;;;;;;10.77;7.97;;;23.80;89.60;;;;;;5072548;28;20024;-70
2022/08/19 00:52:36;;;;;;;12.35;8.40;;;23.70;90.10;;;;;;5066531;28;20036;-70
2022/08/19 00:55:05;;;;;;;13.77;8.35;;;23.70;90.50;;;;;;5068354;28;20036;-69
2022/08/19 00:57:39;;;;;;;9.00;8.10;;;23.60;90.80;;;;;;5067374;28;20028;-70
2022/08/19 01:00:12;;;;;;;8.70;7.78;;;23.50;91.20;;;;;;5067582;28;20040;-69
2022/08/19 01:02:40;;;;;;;9.35;7.80;;;23.50;91.60;;;;;;5071241;28;20039;-69
2022/08/19 01:05:12;;;;;;;11.05;8.43;;;23.40;91.90;;;;;;5070434;28;20039;-69
2022/08/19 01:07:40;;;;;;;10.70;8.05;;;23.40;92.30;;;;;;5071064;28;20925;-69
2022/08/19 01:10:10;;;;;;;9.80;8.43;;;23.30;92.60;;;;;;5067881;28;20036;-69
2022/08/19 01:12:36;;;;;;;9.23;8.23;;;23.30;92.90;;;;;;5069353;28;20565;-69
2022/08/19 01:15:05;;;;;;;9.73;8.63;;;23.20;93.10;;;;;;5063899;28;20071;-70
2022/08/19 01:17:31;;;;;;;9.32;8.07;;;23.20;93.30;;;;;;5078690;28;20041;-69
2022/08/19 01:19:57;;;;;;;10.20;8.60;;;23.20;93.50;;;;;;5075367;28;20542;-69
2022/08/19 01:22:23;;;;;;;10.07;8.90;;;23.20;93.60;;;;;;5073930;28;20037;-69
2022/08/19 01:24:49;;;;;;;8.77;7.93;;;23.20;93.80;;;;;;5078701;28;20563;-69
2022/08/19 01:27:16;;;;;;;9.80;8.30;;;23.10;93.90;;;;;;5075718;28;20036;-69
2022/08/19 01:29:43;;;;;;;13.95;9.15;;;23.10;94.00;;;;;;5067788;28;20574;-69
2022/08/19 01:32:11;;;;;;;9.73;8.73;;;23.10;94.00;;;;;;5066683;28;20650;-70
2022/08/19 01:34:38;;;;;;;10.40;9.30;;;23.00;94.10;;;;;;5064431;28;20056;-69
2022/08/19 01:37:11;;;;;;;11.93;9.52;;;23.00;94.30;;;;;;5064268;28;20792;-69
2022/08/19 01:39:39;;;;;;;14.27;9.75;;;23.00;94.50;;;;;;5072807;28;20078;-70
2022/08/19 01:42:08;;;;;;;11.93;9.18;;;23.00;94.60;;;;;;5069837;28;20043;-69
2022/08/19 01:44:36;;;;;;;14.05;10.00;;;23.00;94.80;;;;;;5074285;28;20038;-69
2022/08/19 01:47:03;;;;;;;18.52;11.02;;;22.90;94.80;;;;;;5069974;28;20033;-70
2022/08/19 01:49:29;;;;;;;18.08;10.52;;;22.90;95.10;;;;;;5068559;28;20119;-70
2022/08/19 01:51:56;;;;;;;16.83;10.57;;;22.90;95.20;;;;;;5065336;28;20029;-70
2022/08/19 01:54:23;;;;;;;12.20;9.23;;;22.80;95.40;;;;;;5064980;28;20111;-71
2022/08/19 01:57:02;;;;;;;12.98;9.57;;;22.80;95.70;;;;;;5063475;28;20028;-71
2022/08/19 01:59:28;;;;;;;12.93;10.30;;;22.70;95.80;;;;;;5073087;28;20024;-70
2022/08/19 02:01:54;;;;;;;14.70;9.73;;;22.80;96.10;;;;;;5067865;28;20036;-70
2022/08/19 02:04:20;;;;;;;12.98;10.10;;;22.70;96.40;;;;;;5068275;28;20032;-70
2022/08/19 02:06:47;;;;;;;13.82;10.50;;;22.70;96.50;;;;;;5065464;28;20036;-70
2022/08/19 02:09:14;;;;;;;11.68;10.23;;;22.70;96.50;;;;;;5065281;28;20041;-70
2022/08/19 02:11:41;;;;;;;13.32;10.45;;;22.70;96.50;;;;;;5074199;28;20039;-70
2022/08/19 02:14:08;;;;;;;13.15;11.05;;;22.70;96.80;;;;;;5065290;28;20036;-70
2022/08/19 02:16:34;;;;;;;12.48;10.75;;;22.70;96.80;;;;;;5072572;28;20028;-70
2022/08/19 02:19:00;;;;;;;14.38;10.85;;;22.70;96.80;;;;;;5067728;28;20033;-69
2022/08/19 02:21:27;;;;;;;12.25;10.23;;;22.60;96.90;;;;;;5069265;28;20028;-70
2022/08/19 02:23:53;;;;;;;11.98;10.68;;;22.60;97.00;;;;;;5066785;28;20181;-70
2022/08/19 02:26:20;;;;;;;11.10;9.35;;;22.60;97.00;;;;;;5070197;28;20035;-70
2022/08/19 02:28:46;;;;;;;11.23;9.82;;;22.60;97.10;;;;;;5063449;28;20029;-70
2022/08/19 02:31:15;;;;;;;10.38;9.35;;;22.60;97.10;;;;;;5068374;28;20562;-70
2022/08/19 02:33:41;;;;;;;11.35;9.80;;;22.50;97.30;;;;;;5065687;28;20097;-70
2022/08/19 02:36:08;;;;;;;11.00;9.45;;;22.50;97.30;;;;;;5071841;28;20029;-70
2022/08/19 02:38:35;;;;;;;11.73;9.82;;;22.50;97.30;;;;;;5071269;28;20421;-70
2022/08/19 02:41:04;;;;;;;11.75;10.05;;;22.50;97.30;;;;;;5072900;28;20032;-70
2022/08/19 02:43:31;;;;;;;11.73;10.38;;;22.50;97.40;;;;;;5076366;28;20028;-70
2022/08/19 02:45:57;;;;;;;12.15;10.65;;;22.60;97.20;;;;;;5073736;28;20318;-70
2022/08/19 02:48:25;;;;;;;12.48;10.77;;;22.50;97.30;;;;;;5073061;28;20036;-70
2022/08/19 02:50:54;;;;;;;14.10;10.10;;;22.50;97.40;;;;;;5079471;28;20032;-70
2022/08/19 02:53:23;;;;;;;11.52;10.23;;;22.50;97.40;;;;;;5074295;28;20032;-70
2022/08/19 02:55:49;;;;;;;11.73;10.52;;;22.50;97.30;;;;;;5074038;28;20028;-72
2022/08/19 02:58:15;;;;;;;11.25;10.15;;;22.40;97.30;;;;;;5072544;28;20638;-72
2022/08/19 03:00:59;;;;;;;12.25;9.80;;;22.40;97.50;;;;;;5068279;28;20034;-71
2022/08/19 03:03:25;;;;;;;11.15;9.98;;;22.30;97.40;;;;;;5065689;28;20033;-71
2022/08/19 03:05:51;;;;;;;10.50;9.45;;;22.30;97.40;;;;;;5068010;28;20458;-71
2022/08/19 03:08:17;;;;;;;10.32;9.32;;;22.40;97.40;;;;;;5062243;28;20036;-71
2022/08/19 03:10:46;;;;;;;11.40;9.45;;;22.30;97.30;;;;;;5060062;28;20037;-71
2022/08/19 03:13:15;;;;;;;11.43;9.85;;;22.30;97.40;;;;;;5064311;28;20040;-71
2022/08/19 03:15:46;;;;;;;12.45;10.18;;;22.30;97.60;;;;;;5068353;28;20426;-71
2022/08/19 03:18:13;;;;;;;10.82;9.73;;;22.30;97.60;;;;;;5066122;28;20750;-72
2022/08/19 03:20:44;;;;;;;10.30;9.05;;;22.30;97.60;;;;;;5073445;28;20107;-72
2022/08/19 03:23:12;;;;;;;12.13;9.73;;;22.30;97.60;;;;;;5066150;28;20115;-71
2022/08/19 03:25:44;;;;;;;12.82;10.45;;;22.30;97.60;;;;;;5066389;28;20024;-71
2022/08/19 03:28:15;;;;;;;13.18;9.57;;;22.30;97.70;;;;;;5062238;28;20503;-71
2022/08/19 03:30:55;;;;;;;11.50;9.32;;;22.30;97.70;;;;;;5062023;28;20024;-71
2022/08/19 03:33:21;;;;;;;10.77;8.52;;;22.30;97.60;;;;;;5075557;28;20047;-71
2022/08/19 03:35:47;;;;;;;10.82;9.73;;;22.30;97.60;;;;;;5076877;28;20035;-71
2022/08/19 03:38:13;;;;;;;10.50;9.45;;;22.30;97.60;;;;;;5074731;28;20044;-71
2022/08/19 03:40:39;;;;;;;12.68;10.45;;;22.30;97.60;;;;;;5073248;28;20085;-71
2022/08/19 03:43:05;;;;;;;10.43;9.40;;;22.30;97.50;;;;;;5066684;28;20039;-71
2022/08/19 03:45:31;;;;;;;11.77;9.82;;;22.30;97.60;;;;;;5066917;28;20024;-71
2022/08/19 03:47:57;;;;;;;12.32;9.98;;;22.30;97.60;;;;;;5069164;28;20408;-71
2022/08/19 03:50:24;;;;;;;13.57;10.68;;;22.30;97.60;;;;;;5080599;28;20024;-71
2022/08/19 03:52:51;;;;;;;10.23;9.13;;;22.30;97.70;;;;;;5068952;28;20043;-71
2022/08/19 03:55:17;;;;;;;10.55;9.50;;;22.30;97.70;;;;;;5078320;28;20040;-71
2022/08/19 03:57:44;;;;;;;11.85;10.38;;;22.20;97.70;;;;;;5066733;28;20118;-71
2022/08/19 04:00:11;;;;;;;11.55;10.35;;;22.20;97.80;;;;;;5065279;28;20135;-71
2022/08/19 04:02:37;;;;;;;11.25;10.13;;;22.20;97.80;;;;;;5063742;28;20033;-71
2022/08/19 04:05:03;;;;;;;11.55;10.35;;;22.20;97.80;;;;;;5062109;28;20043;-71
2022/08/19 04:07:29;;;;;;;15.07;10.65;;;22.20;97.80;;;;;;5061745;28;20028;-71
2022/08/19 04:09:55;;;;;;;11.40;10.20;;;22.30;97.80;;;;;;5068663;28;20051;-71
2022/08/19 04:12:20;;;;;;;13.43;10.98;;;22.30;97.70;;;;;;5069260;28;20040;-71
2022/08/19 04:14:46;;;;;;;11.25;10.15;;;22.30;97.80;;;;;;5068269;28;20029;-71
2022/08/19 04:17:13;;;;;;;12.10;10.35;;;22.30;97.70;;;;;;5070671;28;20037;-71
2022/08/19 04:19:40;;;;;;;12.00;10.57;;;22.30;97.70;;;;;;5065120;28;20071;-71
2022/08/19 04:22:06;;;;;;;11.65;10.45;;;22.30;97.80;;;;;;5063953;28;20029;-71
2022/08/19 04:24:35;;;;;;;13.85;11.25;;;22.30;97.90;;;;;;5069896;28;20058;-71
2022/08/19 04:27:02;;;;;;;14.57;12.13;;;22.20;97.80;;;;;;5068619;28;20076;-71
2022/08/19 04:29:29;;;;;;;13.75;12.23;;;22.20;97.90;;;;;;5071357;28;20020;-71
2022/08/19 04:31:56;;;;;;;13.35;11.93;;;22.20;97.90;;;;;;5070476;28;20539;-71
2022/08/19 04:34:24;;;;;;;18.08;13.57;;;22.20;98.00;;;;;;5072348;28;20166;-71
2022/08/19 04:36:51;;;;;;;14.77;12.18;;;22.30;98.00;;;;;;5068029;28;20115;-71
2022/08/19 04:42:38;;;;;;;15.32;12.55;;;22.30;98.00;;;;;;5077241;28;20032;-71
2022/08/19 04:44:56;;;;;;;15.38;13.15;;;22.30;98.00;;;;;;5067820;28;20032;-71
2022/08/19 04:47:22;;;;;;;16.65;14.07;;;22.30;98.00;;;;;;5069994;28;20036;-71
2022/08/19 04:49:48;;;;;;;15.60;13.88;;;22.30;98.00;;;;;;5071955;28;20028;-71
2022/08/19 04:52:14;;;;;;;20.27;14.25;;;22.30;98.00;;;;;;5070323;28;20044;-71
2022/08/19 04:54:40;;;;;;;16.58;14.73;;;22.30;97.80;;;;;;5069870;28;20472;-72
2022/08/19 04:57:08;;;;;;;16.63;14.77;;;22.40;97.90;;;;;;5066957;28;20082;-71
2022/08/19 04:59:34;;;;;;;15.55;13.70;;;22.30;98.00;;;;;;5067250;28;20024;-72
2022/08/19 05:02:01;;;;;;;14.98;13.25;;;22.40;97.90;;;;;;5072627;28;20036;-71
2022/08/19 05:04:28;;;;;;;16.25;14.15;;;22.40;97.90;;;;;;5065029;28;20025;-71
2022/08/19 05:06:54;;;;;;;18.48;14.02;;;22.40;97.90;;;;;;5071465;28;20075;-72
2022/08/19 05:09:21;;;;;;;16.40;12.80;;;22.50;97.80;;;;;;5072130;28;20125;-71
2022/08/19 05:11:47;;;;;;;15.35;13.75;;;22.50;97.70;;;;;;5074658;28;20036;-71
2022/08/19 05:14:13;;;;;;;14.73;13.18;;;22.60;97.70;;;;;;5084512;28;20032;-72
2022/08/19 05:16:40;;;;;;;14.73;13.05;;;22.60;97.60;;;;;;5079132;28;20040;-71
2022/08/19 05:24:35;;;;;;;16.08;13.48;;;22.70;97.40;;;;;;5066505;28;20063;-71
2022/08/19 05:27:02;;;;;;;15.90;13.00;;;22.70;97.20;;;;;;5069649;28;20033;-71
2022/08/19 05:29:29;;;;;;;17.90;13.25;;;22.70;97.20;;;;;;5073071;28;20081;-71
2022/08/19 05:31:55;;;;;;;14.82;12.63;;;22.70;97.20;;;;;;5067158;28;20512;-71
2022/08/19 05:34:25;;;;;;;14.02;11.90;;;22.70;97.20;;;;;;5067984;28;20043;-72
2022/08/19 05:36:56;;;;;;;14.43;12.90;;;22.70;97.40;;;;;;5065285;28;20020;-71
2022/08/19 05:39:24;;;;;;;15.30;13.40;;;22.70;97.40;;;;;;5068562;28;20396;-71
2022/08/19 05:41:53;;;;;;;15.45;13.45;;;22.80;97.30;;;;;;5062457;28;20025;-71
2022/08/19 05:44:21;;;;;;;15.95;13.15;;;22.80;97.10;;;;;;5072815;28;20024;-70
2022/08/19 05:46:47;;;;;;;15.50;13.00;;;22.80;97.30;;;;;;5069899;28;20068;-71
2022/08/19 05:49:14;;;;;;;13.57;12.15;;;22.80;97.40;;;;;;5068695;28;20129;-71
2022/08/19 05:51:40;;;;;;;16.75;13.88;;;22.90;97.50;;;;;;5069053;28;20070;-71
2022/08/19 05:54:07;;;;;;;15.93;14.32;;;22.90;97.40;;;;;;5065018;28;20056;-71
2022/08/19 05:56:36;;;;;;;18.20;15.43;;;22.90;97.20;;;;;;5069815;28;20119;-71
2022/08/19 05:59:02;;;;;;;16.35;13.70;;;23.00;97.40;;;;;;5064044;28;20032;-71
2022/08/19 06:01:28;;;;;;;15.90;14.15;;;23.00;97.40;;;;;;5065465;28;20043;-71
2022/08/19 06:03:54;;;;;;;19.75;17.67;;;23.10;97.50;;;;;;5076820;28;20492;-71
2022/08/19 06:06:20;;;;;;;18.50;16.20;;;23.10;97.40;;;;;;5072023;28;20031;-71
2022/08/19 06:08:50;;;;;;;17.08;14.32;;;23.20;97.20;;;;;;5067776;28;20121;-72
2022/08/19 06:11:23;;;;;;;17.13;14.52;;;23.30;97.40;;;;;;5068049;28;20032;-71
2022/08/19 06:13:52;;;;;;;17.52;15.73;;;23.30;97.40;;;;;;5066944;28;20028;-71
2022/08/19 06:16:22;;;;;;;18.55;16.63;;;23.40;97.20;;;;;;5064193;28;20032;-71
2022/08/19 06:18:51;;;;;;;16.77;14.98;;;23.50;97.30;;;;;;5061181;28;20139;-71
2022/08/19 06:21:22;;;;;;;17.42;14.55;;;23.50;97.30;;;;;;5062880;28;20020;-71
2022/08/19 06:23:48;;;;;;;16.65;14.73;;;23.60;97.00;;;;;;5069952;28;20115;-71
2022/08/19 06:26:16;;;;;;;17.77;15.88;;;23.60;96.80;;;;;;5072926;28;20047;-71
2022/08/19 06:28:45;;;;;;;18.00;14.68;;;23.70;96.50;;;;;;5069635;28;20039;-71
2022/08/19 06:31:20;;;;;;;19.17;17.08;;;23.70;96.40;;;;;;5067769;28;20036;-71
2022/08/19 06:33:47;;;;;;;15.50;13.82;;;23.70;96.40;;;;;;5063087;28;20048;-71
2022/08/19 06:36:36;;;;;;;17.70;15.73;;;23.80;96.30;;;;;;5063200;28;20039;-71
2022/08/19 06:39:11;;;;;;;17.13;14.48;;;23.80;96.50;;;;;;5066571;28;20067;-71
2022/08/19 06:41:39;;;;;;;16.60;14.90;;;23.80;96.10;;;;;;5073238;28;20106;-71
2022/08/19 06:44:08;;;;;;;16.38;14.05;;;23.80;96.00;;;;;;5069512;28;20029;-71
2022/08/19 06:46:34;;;;;;;15.23;13.60;;;23.80;95.50;;;;;;5073595;28;20518;-71
2022/08/19 06:49:00;;;;;;;14.63;13.13;;;23.80;95.50;;;;;;5067970;28;20044;-71
2022/08/19 06:51:26;;;;;;;16.05;14.38;;;23.90;95.90;;;;;;5065564;28;20062;-71
2022/08/19 06:53:54;;;;;;;16.60;14.48;;;24.00;95.90;;;;;;5069204;28;20039;-71
2022/08/19 06:56:30;;;;;;;15.38;13.77;;;24.10;96.00;;;;;;5070884;28;20036;-71
2022/08/19 06:58:57;;;;;;;15.80;13.40;;;24.20;95.90;;;;;;5079995;28;20701;-71
2022/08/19 07:01:23;;;;;;;16.73;12.82;;;24.30;95.70;;;;;;5071372;28;20089;-71
2022/08/19 07:03:49;;;;;;;14.38;12.75;;;24.40;95.20;;;;;;5066705;28;20032;-71
2022/08/19 07:06:19;;;;;;;13.32;11.93;;;24.50;95.00;;;;;;5066064;28;20035;-71
2022/08/19 07:08:46;;;;;;;13.50;12.10;;;24.50;94.80;;;;;;5063791;28;20861;-72
2022/08/19 07:11:15;;;;;;;14.73;12.32;;;24.60;94.30;;;;;;5063876;28;20067;-71
2022/08/19 07:13:43;;;;;;;12.88;11.57;;;24.60;94.00;;;;;;5061992;28;20556;-71
2022/08/19 07:16:15;;;;;;;12.50;11.20;;;24.60;94.00;;;;;;5073326;28;20048;-71
2022/08/19 07:18:41;;;;;;;13.10;11.70;;;24.70;94.40;;;;;;5073168;28;20478;-70
2022/08/19 07:21:17;;;;;;;14.98;12.00;;;24.80;94.20;;;;;;5076307;28;20110;-71
2022/08/19 07:23:43;;;;;;;;;;;24.80;94.20;;;;;;5073832;28;20049;-71
2022/08/19 07:26:11;;;;;;;;;;;24.80;93.70;;;;;;5075212;28;19912;-71
2022/08/19 07:28:39;;;;;;;11.68;10.57;;;24.90;93.70;;;;;;5077094;28;19957;-71
2022/08/19 07:31:07;;;;;;;12.27;11.07;;;24.80;93.80;;;;;;5075495;28;20041;-71
2022/08/19 07:33:36;;;;;;;13.10;11.30;;;24.80;93.70;;;;;;5075730;28;20035;-71
2022/08/19 07:36:06;;;;;;;13.50;11.48;;;24.70;93.40;;;;;;5079667;28;20469;-71
2022/08/19 07:38:34;;;;;;;14.75;12.80;;;24.70;93.50;;;;;;5074820;28;20030;-72
2022/08/19 07:41:00;;;;;;;14.20;12.15;;;24.60;93.30;;;;;;5067815;28;20040;-71
2022/08/19 07:43:27;;;;;;;13.85;12.48;;;24.60;93.30;;;;;;5068922;28;20419;-70
2022/08/19 07:45:56;;;;;;;14.18;12.75;;;24.50;93.70;;;;;;5064759;28;20121;-71
2022/08/19 07:48:25;;;;;;;15.50;13.90;;;24.50;94.10;;;;;;5064660;28;20534;-71
2022/08/19 07:50:54;;;;;;;14.93;13.43;;;24.50;94.20;;;;;;5062025;28;20029;-71
2022/08/19 07:53:24;;;;;;;17.95;13.75;;;24.60;94.20;;;;;;5061268;28;20127;-71
2022/08/19 07:55:51;;;;;;;19.17;15.85;;;24.70;94.20;;;;;;5065793;28;20024;-71
2022/08/19 07:58:19;;;;;;;17.40;15.57;;;24.80;94.30;;;;;;5070503;28;20044;-71
2022/08/19 08:00:48;;;;;;;17.05;15.25;;;24.80;94.20;;;;;;5067256;28;20858;-71
2022/08/19 08:03:16;;;;;;;20.92;17.25;;;24.90;94.00;;;;;;5066657;28;20025;-71
2022/08/19 08:11:03;;;;;;;18.13;16.20;;;24.90;93.50;;;;;;5073147;28;20039;-71
2022/08/19 08:13:29;;;;;;;19.08;17.10;;;24.90;93.50;;;;;;5061676;28;20024;-71
2022/08/19 08:15:56;;;;;;;19.65;17.58;;;24.80;93.40;;;;;;5068618;28;20399;-71
2022/08/19 08:18:23;;;;;;;19.92;17.83;;;24.80;93.50;;;;;;5070109;28;20144;-67
2022/08/19 08:20:49;;;;;;;19.35;17.35;;;24.80;93.60;;;;;;5067288;28;20059;-71
2022/08/19 08:23:28;;;;;;;21.35;18.30;;;24.80;93.50;;;;;;5072995;28;20079;-71
2022/08/19 08:25:57;;;;;;;22.25;18.15;;;24.80;93.40;;;;;;5064754;28;20499;-71
2022/08/19 08:28:23;;;;;;;19.63;17.60;;;24.70;93.70;;;;;;5064311;28;20036;-71
2022/08/19 08:30:50;;;;;;;20.73;18.08;;;24.70;93.70;;;;;;5071556;28;20032;-71
2022/08/19 08:33:21;;;;;;;20.95;18.77;;;24.70;93.90;;;;;;5063195;28;20041;-71
2022/08/19 08:35:47;;;;;;;21.42;18.98;;;24.70;94.00;;;;;;5066483;28;20035;-71
2022/08/19 08:38:14;;;;;;;25.45;20.08;;;24.80;94.10;;;;;;5064937;28;20143;-71
2022/08/19 08:40:56;;;;;;;23.92;21.17;;;24.90;93.90;;;;;;5068263;28;20107;-71
2022/08/19 08:43:32;;;;;;;25.67;20.67;;;24.90;93.50;;;;;;5064485;28;20094;-70
2022/08/19 08:46:17;;;;;;;19.92;17.10;;;25.00;93.40;;;;;;5061035;28;20515;-71
2022/08/19 08:48:52;;;;;;;22.75;20.10;;;25.00;93.40;;;;;;5063839;28;20028;-71
2022/08/19 08:51:32;;;;;;;25.20;22.50;;;25.00;93.50;;;;;;5060078;28;20599;-71
2022/08/19 08:53:59;;;;;;;23.20;20.58;;;25.00;93.20;;;;;;5067131;28;20040;-71
2022/08/19 08:56:25;;;;;;;26.23;20.20;;;25.00;93.10;;;;;;5069109;28;20079;-71
2022/08/19 08:59:09;;;;;;;26.33;21.73;;;24.90;93.40;;;;;;5066368;28;20111;-71
2022/08/19 09:01:36;;;;;;;24.73;19.65;;;24.90;93.30;;;;;;5063007;28;20032;-71
2022/08/19 09:04:06;;;;;;;23.17;19.75;;;24.90;93.40;;;;;;5062893;28;20063;-71
2022/08/19 09:06:44;;;;;;;24.70;21.02;;;25.00;93.20;;;;;;5061564;28;20033;-71
2022/08/19 09:09:32;;;;;;;24.67;21.73;;;25.00;93.20;;;;;;5063521;28;20085;-71
2022/08/19 09:12:03;;;;;;;21.70;19.38;;;25.10;92.80;;;;;;5070643;28;20173;-71
2022/08/19 09:14:35;;;;;;;24.23;19.90;;;25.10;92.80;;;;;;5074192;28;20455;-71
2022/08/19 09:17:03;;;;;;;22.52;18.95;;;25.00;92.80;;;;;;5070101;28;20351;-71
2022/08/19 09:19:29;;;;;;;23.95;21.27;;;24.90;93.10;;;;;;5072459;28;20103;-71
2022/08/19 09:21:55;;;;;;;24.10;19.85;;;24.90;93.10;;;;;;5072421;28;20078;-71
2022/08/19 09:24:21;;;;;;;25.02;21.02;;;24.80;93.20;;;;;;5068611;28;20072;-71
2022/08/19 09:26:46;;;;;;;24.50;21.80;;;24.70;93.20;;;;;;5064727;28;20074;-71
2022/08/19 09:29:13;;;;;;;21.85;19.50;;;24.70;93.20;;;;;;5064980;28;20047;-71
2022/08/19 09:31:39;;;;;;;23.08;19.23;;;24.60;93.30;;;;;;5078370;28;20043;-71
2022/08/19 09:34:05;;;;;;;21.33;19.02;;;24.60;93.60;;;;;;5069843;28;20439;-71
2022/08/19 09:36:33;;;;;;;24.50;20.55;;;24.50;93.80;;;;;;5068513;28;20139;-71
2022/08/19 09:38:59;;;;;;;29.10;22.85;;;24.50;93.70;;;;;;5069537;28;20036;-71
2022/08/19 09:41:26;;;;;;;25.90;21.35;;;24.40;93.80;;;;;;5073199;28;20082;-72
2022/08/19 09:43:55;;;;;;;24.08;21.23;;;24.40;93.90;;;;;;5064481;28;20032;-71
2022/08/19 09:46:22;;;;;;;33.58;23.35;;;24.30;93.90;;;;;;5069017;28;20033;-71
2022/08/19 09:48:50;;;;;;;24.98;21.10;;;24.30;93.90;;;;;;5073493;28;20038;-71
2022/08/19 09:51:19;;;;;;;25.25;21.98;;;24.30;93.70;;;;;;5083148;28;20032;-71
2022/08/19 09:53:46;;;;;;;25.27;21.42;;;24.30;93.70;;;;;;5085613;28;20047;-71
2022/08/19 09:56:13;;;;;;;29.80;23.25;;;24.30;93.90;;;;;;5078568;28;20060;-71
2022/08/19 09:58:40;;;;;;;26.65;22.38;;;24.30;93.90;;;;;;5074717;28;20107;-71
2022/08/19 10:01:07;;;;;;;28.35;21.38;;;24.30;93.60;;;;;;5073648;28;20036;-71
2022/08/19 10:03:34;;;;;;;26.33;23.33;;;24.30;93.60;;;;;;5065548;28;20040;-71
2022/08/19 10:06:03;;;;;;;26.42;21.45;;;24.20;93.70;;;;;;5063717;28;20770;-71
2022/08/19 10:08:32;;;;;;;22.50;19.35;;;24.20;93.80;;;;;;5069654;28;20043;-71
2022/08/19 10:10:59;;;;;;;30.25;22.00;;;24.20;93.80;;;;;;5069754;28;20043;-71
2022/08/19 10:13:27;;;;;;;25.17;21.35;;;24.10;94.00;;;;;;5070772;28;20043;-71
2022/08/19 10:15:55;;;;;;;27.40;23.33;;;24.10;94.00;;;;;;5071619;28;20109;-71
2022/08/19 10:18:22;;;;;;;24.40;21.42;;;24.10;94.00;;;;;;5067021;28;20598;-71
2022/08/19 10:20:50;;;;;;;34.10;24.95;;;24.10;94.10;;;;;;5068569;28;20146;-71
2022/08/19 10:23:16;;;;;;;30.13;23.55;;;24.10;94.10;;;;;;5065453;28;20079;-71
2022/08/19 10:25:42;;;;;;;25.48;21.42;;;24.10;94.20;;;;;;5075261;28;20066;-72
2022/08/19 10:28:11;;;;;;;31.98;25.45;;;24.10;94.20;;;;;;5072481;28;20060;-71
2022/08/19 10:30:39;;;;;;;28.67;21.75;;;24.10;94.20;;;;;;5070137;28;20067;-71
2022/08/19 10:33:05;;;;;;;36.30;28.80;;;24.10;94.30;;;;;;5066595;28;20518;-71
2022/08/19 10:35:31;;;;;;;34.42;28.80;;;24.20;94.30;;;;;;5076041;28;20040;-71
2022/08/19 10:37:58;;;;;;;29.42;24.58;;;24.10;94.00;;;;;;5065462;28;20033;-71
2022/08/19 10:40:28;;;;;;;32.05;25.90;;;24.10;93.90;;;;;;5076523;28;20032;-71
2022/08/19 10:42:55;;;;;;;34.28;28.42;;;24.10;94.10;;;;;;5061841;28;20041;-72
2022/08/19 10:45:25;;;;;;;34.72;28.88;;;24.00;94.10;;;;;;5063776;28;20060;-71
2022/08/19 10:47:53;;;;;;;35.55;28.25;;;24.00;94.00;;;;;;5070057;28;20036;-71
2022/08/19 10:53:08;;;;;;;39.03;29.27;;;24.00;94.20;;;;;;5066446;28;20037;-71
2022/08/19 10:58:22;;;;;;;36.17;27.58;;;23.90;94.20;;;;;;5065233;28;20041;-71
2022/08/19 11:00:53;;;;;;;31.20;25.00;;;23.90;94.10;;;;;;5068831;28;20066;-71
2022/08/19 11:03:19;;;;;;;28.98;23.52;;;23.90;94.30;;;;;;5061141;28;20039;-71
2022/08/19 11:05:45;;;;;;;35.40;25.90;;;23.90;94.20;;;;;;5072647;28;20036;-71
2022/08/19 11:08:11;;;;;;;32.13;25.48;;;23.90;94.20;;;;;;5067862;28;20085;-70
2022/08/19 11:10:42;;;;;;;32.03;25.25;;;23.90;94.20;;;;;;5073497;28;20143;-71
2022/08/19 11:13:08;;;;;;;32.33;24.73;;;23.90;94.20;;;;;;5064641;28;20035;-71
2022/08/19 11:15:35;;;;;;;33.80;26.20;;;23.90;94.10;;;;;;5065005;28;20048;-71
2022/08/19 11:18:00;;;;;;;31.20;24.92;;;23.90;94.10;;;;;;5062025;28;20430;-71
2022/08/19 11:20:26;;;;;;;27.98;21.85;;;23.90;94.20;;;;;;5064371;28;20561;-71
2022/08/19 11:22:53;;;;;;;29.92;23.90;;;23.80;94.20;;;;;;5069257;28;20040;-71
2022/08/19 11:25:20;;;;;;;31.63;23.92;;;23.80;94.20;;;;;;5069137;28;20036;-71
2022/08/19 11:27:46;;;;;;;28.17;22.63;;;23.80;94.10;;;;;;5072378;28;20027;-71
2022/08/19 11:30:13;;;;;;;27.48;20.73;;;23.80;94.20;;;;;;5070701;28;20024;-71
2022/08/19 11:32:42;;;;;;;26.52;21.60;;;23.80;94.30;;;;;;5070450;28;20050;-71
2022/08/19 11:35:08;;;;;;;30.27;24.55;;;23.80;94.30;;;;;;5070360;28;20032;-71
2022/08/19 11:37:37;;;;;;;29.80;24.83;;;23.80;94.20;;;;;;5062836;28;20028;-71
2022/08/19 11:40:04;;;;;;;27.92;23.75;;;23.80;94.20;;;;;;5070354;28;20043;-71
2022/08/19 11:45:15;;;;;;;27.08;21.17;;;23.80;94.20;;;;;;5069572;28;20258;-71
2022/08/19 11:47:40;;;;;;;26.50;22.13;;;23.80;94.20;;;;;;5073611;28;20164;-71
2022/08/19 11:50:06;;;;;;;28.27;20.95;;;23.80;94.10;;;;;;5067234;28;20040;-71
2022/08/19 11:52:32;;;;;;;27.90;22.35;;;23.80;94.20;;;;;;5076193;28;20059;-71
2022/08/19 11:54:58;;;;;;;28.45;22.15;;;23.80;94.20;;;;;;5072145;28;20094;-71
2022/08/19 11:57:24;;;;;;;27.65;22.58;;;23.90;94.10;;;;;;5067511;28;20069;-71
2022/08/19 11:59:52;;;;;;;26.00;21.15;;;23.90;94.10;;;;;;5070390;28;20496;-71
2022/08/19 12:02:18;;;;;;;26.55;22.60;;;23.80;93.90;;;;;;5071212;28;20120;-71
2022/08/19 12:04:44;;;;;;;26.80;20.58;;;23.90;93.90;;;;;;5076673;28;20031;-69
2022/08/19 12:07:10;;;;;;;24.90;19.73;;;23.90;93.80;;;;;;5078068;28;20039;-71
2022/08/19 12:09:36;;;;;;;24.63;20.73;;;23.80;93.80;;;;;;5074186;28;20032;-71
2022/08/19 12:12:02;;;;;;;21.98;17.55;;;23.90;93.80;;;;;;5073521;28;20025;-71
2022/08/19 12:14:30;;;;;;;24.77;19.95;;;23.80;94.00;;;;;;5067127;28;20411;-71
2022/08/19 12:16:56;;;;;;;23.33;18.88;;;23.90;93.70;;;;;;5060356;28;20040;-71
2022/08/19 12:19:22;;;;;;;19.13;16.75;;;23.90;93.50;;;;;;5061775;28;20032;-71
2022/08/19 12:21:48;;;;;;;18.92;15.25;;;23.90;93.60;;;;;;5067557;28;20032;-71
2022/08/19 12:24:14;;;;;;;21.23;17.45;;;24.00;93.70;;;;;;5068183;28;20862;-71
2022/08/19 12:26:40;;;;;;;17.65;14.63;;;24.00;93.40;;;;;;5070830;28;20036;-72
2022/08/19 12:29:07;;;;;;;20.38;14.93;;;24.00;93.20;;;;;;5071541;28;20056;-72
2022/08/19 12:31:33;;;;;;;17.23;14.77;;;24.00;92.90;;;;;;5071869;28;20028;-71
2022/08/19 12:34:02;;;;;;;18.83;15.75;;;24.00;93.30;;;;;;5061711;28;20032;-71
2022/08/19 12:36:28;;;;;;;14.27;12.45;;;24.00;93.50;;;;;;5058185;28;20059;-71
2022/08/19 12:38:54;;;;;;;18.67;15.43;;;24.00;93.60;;;;;;5066755;28;20381;-72
2022/08/19 12:41:22;;;;;;;14.90;13.30;;;24.00;93.50;;;;;;5068953;28;20043;-71
2022/08/19 12:43:49;;;;;;;17.10;14.07;;;24.00;93.50;;;;;;5075093;28;20032;-71
2022/08/19 12:46:15;;;;;;;15.85;13.75;;;24.20;93.30;;;;;;5076892;28;20845;-71
2022/08/19 12:48:41;;;;;;;16.73;14.90;;;24.20;93.20;;;;;;5073994;28;20484;-71
2022/08/19 12:51:10;;;;;;;16.15;14.13;;;24.20;93.00;;;;;;5078936;28;20104;-71
2022/08/19 12:53:35;;;;;;;12.90;11.05;;;24.30;93.00;;;;;;5064899;28;20135;-71
2022/08/19 12:56:02;;;;;;;13.80;12.40;;;24.30;92.90;;;;;;5071190;28;20043;-71